Terminal Aerodrome Forecast
Issued by NWS

Home | Current Version | Previous Version | Text Only | Print | Product List | Glossary On
Versions: 1 2 3 4 5 6 7 8 9 10 11 12 13 14 15
506
FTUS46 KSTO 051144
TAFSAC
TAF
KSAC 051144Z 0512/0612 VRB03KT 1/2SM FG BKN002
      TEMPO 0512/0516 1/4SM FG VV001
     FM051800 33011KT P6SM SCT200
     FM061100 32003KT 2SM MIFG BKN002=

USA.gov is the U.S. government's official web portal to all federal, state and local government web resources and services.